createdAt,value
2019-02-25T00:01:07.411Z,18.55
2019-02-25T00:02:33.114Z,18.85
2019-02-25T00:03:39.006Z,16.85
2019-02-25T00:04:45.397Z,17.90
2019-02-25T00:05:51.863Z,18.52
2019-02-25T00:06:57.861Z,17.73
2019-02-25T00:08:05.046Z,19.57
2019-02-25T00:09:10.759Z,17.52
2019-02-25T00:10:17.756Z,24.82
2019-02-25T00:11:24.032Z,20.82
2019-02-25T00:12:30.320Z,21.48
2019-02-25T00:13:36.602Z,21.02
2019-02-25T00:14:43.203Z,22.87
2019-02-25T00:15:49.097Z,20.27
2019-02-25T00:16:55.922Z,18.35
2019-02-25T00:18:02.808Z,21.23
2019-02-25T00:19:08.572Z,19.15
2019-02-25T00:20:15.878Z,18.55
2019-02-25T00:21:23.309Z,19.10
2019-02-25T00:22:29.593Z,17.35
2019-02-25T00:23:36.535Z,17.82
2019-02-25T00:24:42.915Z,18.35
2019-02-25T00:25:49.054Z,17.75
2019-02-25T00:26:55.024Z,15.93
2019-02-25T00:28:02.688Z,17.17
2019-02-25T00:29:09.819Z,17.82
2019-02-25T00:30:17.709Z,18.02
2019-02-25T00:31:23.604Z,17.62
2019-02-25T00:32:30.342Z,17.50
2019-02-25T00:33:37.019Z,15.43
2019-02-25T00:34:42.988Z,16.93
2019-02-25T00:35:49.688Z,17.90
2019-02-25T00:36:56.314Z,18.00
2019-02-25T00:38:02.857Z,17.82
2019-02-25T00:39:09.875Z,16.52
2019-02-25T00:40:16.820Z,16.32
2019-02-25T00:41:23.430Z,17.20
2019-02-25T00:42:30.360Z,16.77
2019-02-25T00:43:37.105Z,17.40
2019-02-25T00:44:43.141Z,15.53
2019-02-25T00:45:50.640Z,16.80
2019-02-25T00:46:57.976Z,16.67
2019-02-25T00:48:04.187Z,17.27
2019-02-25T00:49:11.550Z,16.45
2019-02-25T00:50:21.769Z,15.85
2019-02-25T00:51:27.622Z,16.70
2019-02-25T00:52:34.467Z,17.27
2019-02-25T00:53:40.814Z,16.10
2019-02-25T00:54:47.418Z,16.85
2019-02-25T00:55:54.620Z,16.40
2019-02-25T00:57:01.221Z,15.80
2019-02-25T00:58:08.100Z,17.12
2019-02-25T00:59:14.770Z,17.25
2019-02-25T01:00:24.743Z,16.67
2019-02-25T01:01:31.070Z,15.72
2019-02-25T01:02:37.557Z,16.30
2019-02-25T01:03:43.468Z,16.27
2019-02-25T01:04:49.905Z,18.32
2019-02-25T01:05:56.795Z,17.80
2019-02-25T01:07:03.529Z,19.85
2019-02-25T01:08:10.462Z,24.05
2019-02-25T01:09:16.749Z,26.42
2019-02-25T01:10:23.160Z,27.52
2019-02-25T01:11:28.880Z,26.02
2019-02-25T01:12:35.771Z,25.77
2019-02-25T01:13:41.989Z,23.12
2019-02-25T01:14:49.022Z,23.07
2019-02-25T01:15:56.338Z,20.02
2019-02-25T01:17:02.175Z,19.05
2019-02-25T01:18:08.233Z,19.10
2019-02-25T01:19:15.451Z,18.23
2019-02-25T01:20:21.347Z,18.40
2019-02-25T01:21:28.197Z,22.60
2019-02-25T01:22:35.028Z,19.35
2019-02-25T01:23:41.667Z,18.25
2019-02-25T01:24:48.848Z,17.90
2019-02-25T01:25:54.874Z,18.15
2019-02-25T01:27:01.500Z,17.75
2019-02-25T01:28:08.356Z,18.73
2019-02-25T01:29:14.038Z,19.10
2019-02-25T01:30:21.837Z,18.32
2019-02-25T01:31:28.946Z,18.35
2019-02-25T01:32:34.656Z,20.10
2019-02-25T01:33:40.907Z,19.48
2019-02-25T01:34:47.263Z,20.37
2019-02-25T01:35:53.502Z,21.17
2019-02-25T01:37:01.096Z,22.02
2019-02-25T01:38:07.349Z,27.25
2019-02-25T01:39:14.923Z,27.10
2019-02-25T01:40:21.769Z,24.80
2019-02-25T01:41:28.629Z,23.35
2019-02-25T01:42:36.129Z,21.05
2019-02-25T01:43:42.579Z,21.25
2019-02-25T01:44:48.535Z,19.87
2019-02-25T01:45:55.311Z,18.15
2019-02-25T01:47:03.175Z,18.17
2019-02-25T01:48:09.245Z,17.70
2019-02-25T01:49:15.797Z,18.80
2019-02-25T01:50:22.749Z,17.20
2019-02-25T01:51:28.722Z,19.10
2019-02-25T01:52:35.074Z,17.52
2019-02-25T01:53:40.957Z,19.73
2019-02-25T01:54:47.139Z,23.27
2019-02-25T01:55:53.914Z,29.42
2019-02-25T01:57:00.295Z,29.70
2019-02-25T01:58:06.209Z,29.70
2019-02-25T01:59:13.526Z,30.05
2019-02-25T02:00:20.288Z,28.70
2019-02-25T02:01:27.389Z,24.12
2019-02-25T02:02:35.161Z,22.10
2019-02-25T02:03:41.001Z,24.85
2019-02-25T02:04:48.595Z,22.65
2019-02-25T02:05:55.423Z,21.97
2019-02-25T02:07:01.382Z,19.30
2019-02-25T02:08:08.342Z,18.48
2019-02-25T02:09:16.372Z,19.87
2019-02-25T02:10:22.393Z,20.97
2019-02-25T02:11:28.951Z,19.65
2019-02-25T02:12:36.085Z,18.23
2019-02-25T02:13:41.957Z,18.10
2019-02-25T02:14:48.376Z,17.57
2019-02-25T02:15:55.489Z,18.85
2019-02-25T02:17:01.536Z,18.70
2019-02-25T02:18:08.908Z,17.42
2019-02-25T02:19:15.990Z,17.45
2019-02-25T02:20:22.352Z,18.50
2019-02-25T02:21:30.228Z,19.80
2019-02-25T02:22:36.181Z,19.95
2019-02-25T02:23:43.023Z,20.85
2019-02-25T02:24:50.323Z,20.15
2019-02-25T02:25:56.734Z,19.87
2019-02-25T02:27:03.571Z,23.70
2019-02-25T02:28:10.731Z,21.30
2019-02-25T02:29:16.465Z,22.25
2019-02-25T02:30:24.209Z,26.05
2019-02-25T02:31:30.668Z,25.50
2019-02-25T02:32:37.696Z,22.55
2019-02-25T02:33:46.558Z,21.48
2019-02-25T02:34:52.973Z,20.12
2019-02-25T02:35:59.466Z,20.40
2019-02-25T02:37:05.663Z,19.77
2019-02-25T02:38:11.528Z,19.07
2019-02-25T02:39:17.946Z,18.42
2019-02-25T02:40:25.139Z,17.67
2019-02-25T02:41:32.398Z,18.55
2019-02-25T02:42:39.383Z,18.30
2019-02-25T02:43:45.546Z,17.85
2019-02-25T02:44:55.015Z,17.87
2019-02-25T02:46:09.558Z,19.07
2019-02-25T02:47:39.576Z,20.77
2019-02-25T02:48:56.700Z,18.75
2019-02-25T02:50:06.687Z,19.62
2019-02-25T02:51:13.109Z,22.15
2019-02-25T02:52:19.489Z,23.05
2019-02-25T02:53:26.618Z,19.27
2019-02-25T02:54:33.141Z,20.65
2019-02-25T02:55:39.568Z,20.90
2019-02-25T02:56:45.619Z,20.80
2019-02-25T02:57:52.298Z,19.70
2019-02-25T02:58:59.443Z,19.95
2019-02-25T03:00:09.924Z,21.10
2019-02-25T03:01:16.803Z,20.35
2019-02-25T03:02:23.665Z,19.57
2019-02-25T03:03:29.707Z,20.27
2019-02-25T03:04:38.515Z,19.20
2019-02-25T03:05:46.462Z,20.85
2019-02-25T03:06:52.451Z,20.82
2019-02-25T03:07:58.948Z,20.68
2019-02-25T03:09:07.407Z,19.62
2019-02-25T03:10:20.007Z,19.40
2019-02-25T03:11:27.387Z,19.73
2019-02-25T03:12:33.549Z,20.48
2019-02-25T03:13:40.708Z,19.60
2019-02-25T03:14:47.294Z,18.55
2019-02-25T03:15:53.700Z,18.20
2019-02-25T03:17:00.325Z,19.32
2019-02-25T03:18:08.134Z,20.30
2019-02-25T03:19:14.555Z,19.50
2019-02-25T03:20:21.584Z,18.95
2019-02-25T03:21:28.366Z,20.10
2019-02-25T03:22:34.112Z,19.90
2019-02-25T03:23:40.775Z,19.35
2019-02-25T03:24:47.520Z,18.80
2019-02-25T03:25:53.479Z,19.87
2019-02-25T03:27:00.006Z,19.70
2019-02-25T03:28:07.126Z,19.20
2019-02-25T03:29:12.755Z,20.12
2019-02-25T03:30:22.435Z,20.60
2019-02-25T03:31:30.041Z,20.90
2019-02-25T03:32:36.770Z,21.37
2019-02-25T03:33:43.628Z,19.87
2019-02-25T03:34:49.878Z,20.43
2019-02-25T03:35:56.243Z,20.92
2019-02-25T03:37:03.136Z,21.07
2019-02-25T03:38:09.041Z,21.27
2019-02-25T03:39:15.324Z,21.85
2019-02-25T03:40:25.155Z,21.02
2019-02-25T03:41:31.660Z,22.05
2019-02-25T03:42:38.402Z,27.87
2019-02-25T03:43:45.130Z,40.95
2019-02-25T03:44:51.360Z,41.30
2019-02-25T03:45:59.491Z,41.80
2019-02-25T03:47:06.260Z,36.03
2019-02-25T03:48:12.099Z,31.42
2019-02-25T03:49:19.305Z,32.30
2019-02-25T03:50:26.151Z,22.82
2019-02-25T03:51:32.870Z,24.35
2019-02-25T03:52:41.373Z,73.37
2019-02-25T03:53:47.131Z,76.50
2019-02-25T03:54:53.438Z,88.07
2019-02-25T03:55:59.762Z,157.18
2019-02-25T03:57:05.987Z,172.98
2019-02-25T03:58:12.947Z,152.62
2019-02-25T03:59:20.541Z,118.50
2019-02-25T04:00:26.986Z,122.13
2019-02-25T04:01:33.553Z,88.10
2019-02-25T04:02:40.341Z,58.70
2019-02-25T04:03:46.397Z,69.42
2019-02-25T04:04:52.970Z,79.80
2019-02-25T04:05:59.310Z,85.50
2019-02-25T04:07:05.417Z,62.73
2019-02-25T04:08:11.647Z,42.53
2019-02-25T04:09:20.031Z,40.33
2019-02-25T04:10:26.048Z,63.70
2019-02-25T04:11:32.184Z,80.97
2019-02-25T04:12:39.335Z,61.15
2019-02-25T04:13:45.424Z,47.67
2019-02-25T04:14:52.517Z,39.00
2019-02-25T04:16:01.744Z,78.75
2019-02-25T04:17:07.768Z,118.85
2019-02-25T04:18:15.312Z,95.07
2019-02-25T04:19:23.344Z,85.50
2019-02-25T04:20:29.894Z,82.02
2019-02-25T04:21:36.808Z,68.80
2019-02-25T04:22:43.296Z,52.27
2019-02-25T04:23:50.350Z,50.95
2019-02-25T04:24:56.495Z,40.08
2019-02-25T04:26:03.933Z,34.38
2019-02-25T04:27:11.340Z,33.67
2019-02-25T04:28:18.832Z,26.35
2019-02-25T04:29:24.648Z,26.60
2019-02-25T04:30:31.781Z,26.10
2019-02-25T04:31:40.204Z,29.67
2019-02-25T04:32:46.244Z,30.90
2019-02-25T04:33:53.631Z,30.70
2019-02-25T04:35:01.717Z,27.80
2019-02-25T04:36:09.446Z,26.68
2019-02-25T04:37:16.163Z,26.90
2019-02-25T04:38:22.425Z,26.35
2019-02-25T04:39:29.041Z,25.12
2019-02-25T04:40:35.791Z,24.85
2019-02-25T04:41:41.789Z,25.17
2019-02-25T04:42:49.331Z,26.73
2019-02-25T04:43:56.514Z,26.95
2019-02-25T04:45:02.707Z,27.58
2019-02-25T04:46:10.509Z,28.10
2019-02-25T04:47:16.925Z,30.12
2019-02-25T04:48:23.403Z,29.72
2019-02-25T04:49:30.690Z,30.52
2019-02-25T04:50:36.745Z,30.02
2019-02-25T04:51:42.690Z,29.95
2019-02-25T04:52:49.822Z,29.55
2019-02-25T04:53:56.317Z,29.15
2019-02-25T04:55:02.571Z,29.00
2019-02-25T04:56:09.061Z,31.00
2019-02-25T04:57:15.369Z,30.12
2019-02-25T04:58:21.411Z,30.02
2019-02-25T04:59:27.760Z,30.02
2019-02-25T05:00:34.676Z,31.35
2019-02-25T05:01:40.910Z,33.63
2019-02-25T05:02:48.575Z,34.20
2019-02-25T05:03:55.252Z,37.75
2019-02-25T05:05:01.695Z,37.60
2019-02-25T05:06:09.507Z,39.42
2019-02-25T05:07:15.451Z,37.63
2019-02-25T05:08:22.036Z,35.05
2019-02-25T05:09:29.285Z,34.18
2019-02-25T05:10:35.986Z,33.67
2019-02-25T05:11:42.608Z,33.35
2019-02-25T05:12:55.538Z,32.13
2019-02-25T05:14:01.589Z,35.35
2019-02-25T05:15:10.538Z,32.35
2019-02-25T05:16:17.644Z,34.83
2019-02-25T05:17:24.064Z,34.15
2019-02-25T05:18:30.704Z,33.70
2019-02-25T05:19:37.237Z,35.10
2019-02-25T05:20:43.407Z,37.42
2019-02-25T05:21:50.102Z,37.23
2019-02-25T05:22:56.682Z,39.27
2019-02-25T05:24:04.783Z,38.05
2019-02-25T05:25:13.410Z,37.15
2019-02-25T05:26:19.167Z,36.95
2019-02-25T05:27:25.954Z,36.95
2019-02-25T05:28:33.675Z,37.53
2019-02-25T05:29:39.648Z,39.15
2019-02-25T05:30:46.290Z,36.23
2019-02-25T05:31:53.289Z,38.00
2019-02-25T05:32:59.241Z,38.00
2019-02-25T05:34:06.269Z,39.42
2019-02-25T05:35:14.025Z,38.78
2019-02-25T05:36:20.350Z,41.58
2019-02-25T05:37:27.384Z,41.02
2019-02-25T05:38:34.092Z,38.70
2019-02-25T05:39:40.122Z,41.45
2019-02-25T05:40:48.164Z,43.20
2019-02-25T05:41:55.216Z,42.75
2019-02-25T05:43:01.987Z,42.83
2019-02-25T05:44:09.207Z,47.50
2019-02-25T05:45:16.024Z,46.88
2019-02-25T05:46:22.004Z,47.70
2019-02-25T05:47:30.084Z,46.90
2019-02-25T05:48:36.189Z,48.00
2019-02-25T05:49:42.958Z,49.70
2019-02-25T05:50:49.650Z,47.38
2019-02-25T05:51:55.990Z,45.40
2019-02-25T05:53:03.272Z,44.67
2019-02-25T05:54:10.176Z,45.00
2019-02-25T05:55:18.321Z,42.43
2019-02-25T05:56:25.059Z,40.28
2019-02-25T05:57:31.660Z,43.80
2019-02-25T05:58:39.038Z,42.23
2019-02-25T05:59:46.309Z,41.90
2019-02-25T06:00:52.449Z,45.85
2019-02-25T06:01:58.563Z,45.70
2019-02-25T06:03:05.423Z,42.03
2019-02-25T06:04:11.413Z,45.05
2019-02-25T06:05:18.053Z,44.08
2019-02-25T06:06:24.874Z,46.48
2019-02-25T06:07:30.671Z,47.38
2019-02-25T06:08:37.487Z,50.80
2019-02-25T06:09:45.092Z,48.87
2019-02-25T06:10:50.777Z,47.83
2019-02-25T06:11:56.826Z,48.10
2019-02-25T06:13:03.645Z,46.00
2019-02-25T06:14:09.738Z,45.45
2019-02-25T06:15:22.279Z,46.53
2019-02-25T06:16:29.356Z,46.88
2019-02-25T06:17:37.748Z,44.15
2019-02-25T06:18:43.946Z,45.98
2019-02-25T06:19:51.121Z,45.48
2019-02-25T06:20:57.201Z,47.65
2019-02-25T06:22:04.871Z,47.23
2019-02-25T06:23:11.822Z,45.08
2019-02-25T06:24:18.339Z,44.20
2019-02-25T06:25:25.524Z,44.48
2019-02-25T06:26:31.421Z,45.33
2019-02-25T06:27:38.495Z,43.83
2019-02-25T06:28:45.212Z,43.20
2019-02-25T06:29:51.798Z,43.20
2019-02-25T06:30:58.399Z,42.45
2019-02-25T06:32:04.763Z,43.40
2019-02-25T06:33:10.781Z,56.15
2019-02-25T06:34:19.251Z,44.10
2019-02-25T06:35:26.391Z,42.17
2019-02-25T06:36:34.267Z,43.55
2019-02-25T06:37:41.124Z,43.80
2019-02-25T06:38:47.165Z,42.65
2019-02-25T06:39:54.744Z,43.73
2019-02-25T06:41:01.217Z,42.60
2019-02-25T06:42:08.455Z,42.27
2019-02-25T06:43:15.593Z,42.90
2019-02-25T06:44:21.993Z,40.45
2019-02-25T06:45:35.318Z,40.17
2019-02-25T06:46:43.395Z,41.73
2019-02-25T06:47:50.403Z,43.08
2019-02-25T06:48:58.000Z,43.25
2019-02-25T06:50:05.607Z,43.68
2019-02-25T06:51:14.238Z,47.88
2019-02-25T06:52:20.519Z,42.27
2019-02-25T06:53:30.090Z,44.25
2019-02-25T06:54:36.782Z,42.45
2019-02-25T06:55:44.392Z,44.10
2019-02-25T06:56:50.882Z,41.98
2019-02-25T06:57:57.522Z,43.23
2019-02-25T06:59:04.678Z,45.58
2019-02-25T07:00:21.460Z,45.50
2019-02-25T07:01:28.588Z,42.65
2019-02-25T07:02:35.410Z,43.50
2019-02-25T07:03:44.264Z,43.48
2019-02-25T07:04:59.202Z,43.00
2019-02-25T07:06:08.667Z,43.00
2019-02-25T07:07:19.535Z,42.50
2019-02-25T07:08:26.181Z,42.78
2019-02-25T07:09:50.625Z,42.13
2019-02-25T07:12:23.414Z,42.25
2019-02-25T07:13:34.874Z,40.45
2019-02-25T07:14:43.794Z,44.27
2019-02-25T07:15:59.522Z,41.33
2019-02-25T07:17:13.806Z,41.88
2019-02-25T07:18:36.304Z,43.23
2019-02-25T07:19:47.822Z,42.70
2019-02-25T07:20:55.611Z,40.43
2019-02-25T07:22:13.761Z,40.55
2019-02-25T07:23:33.609Z,43.45
2019-02-25T07:24:55.070Z,40.48
2019-02-25T07:26:03.312Z,48.20
2019-02-25T07:27:11.935Z,38.13
2019-02-25T07:28:36.705Z,42.13
2019-02-25T07:30:01.088Z,40.10
2019-02-25T07:31:25.203Z,41.55
2019-02-25T07:32:36.922Z,45.30
2019-02-25T07:33:46.932Z,37.42
2019-02-25T07:34:58.521Z,42.62
2019-02-25T07:36:09.397Z,39.05
2019-02-25T07:37:34.122Z,39.42
2019-02-25T07:38:51.949Z,37.25
2019-02-25T07:40:13.972Z,40.48
2019-02-25T07:41:23.783Z,42.00
2019-02-25T07:42:51.318Z,41.40
2019-02-25T07:44:09.390Z,49.93
2019-02-25T07:45:34.563Z,43.00
2019-02-25T07:46:48.940Z,47.90
2019-02-25T07:47:57.113Z,51.70
2019-02-25T07:49:11.982Z,52.17
2019-02-25T07:50:27.848Z,45.88
2019-02-25T07:51:39.408Z,45.12
2019-02-25T07:52:49.982Z,47.85
2019-02-25T07:53:58.817Z,57.53
2019-02-25T07:55:14.969Z,46.75
2019-02-25T07:56:28.544Z,44.13
2019-02-25T07:57:44.835Z,42.85
2019-02-25T07:59:16.436Z,44.35
2019-02-25T08:00:51.169Z,63.75
2019-02-25T08:02:18.179Z,64.95
2019-02-25T08:03:31.160Z,59.58
2019-02-25T08:04:43.242Z,60.33
2019-02-25T08:06:02.964Z,57.75
2019-02-25T08:07:17.271Z,48.90
2019-02-25T08:08:33.519Z,66.72
2019-02-25T08:09:43.237Z,43.40
2019-02-25T08:10:51.838Z,50.20
2019-02-25T08:11:59.679Z,44.25
2019-02-25T08:13:07.840Z,38.13
2019-02-25T08:14:27.110Z,47.25
2019-02-25T08:15:34.873Z,41.25
2019-02-25T08:16:50.430Z,42.35
2019-02-25T08:18:14.434Z,42.95
2019-02-25T08:19:22.826Z,54.80
2019-02-25T08:20:32.030Z,64.60
2019-02-25T08:21:45.590Z,42.62
2019-02-25T08:23:09.726Z,109.45
2019-02-25T08:24:17.228Z,99.37
2019-02-25T08:25:30.336Z,90.72
2019-02-25T08:26:40.852Z,96.90
2019-02-25T08:27:50.980Z,93.95
2019-02-25T08:29:05.302Z,87.12
2019-02-25T08:30:27.020Z,52.67
2019-02-25T08:31:44.793Z,74.25
2019-02-25T08:32:56.059Z,56.33
2019-02-25T08:34:18.288Z,63.63
2019-02-25T08:35:45.039Z,64.50
2019-02-25T08:37:12.333Z,46.88
2019-02-25T08:38:22.980Z,79.45
2019-02-25T08:39:32.053Z,60.55
2019-02-25T08:40:50.553Z,49.30
2019-02-25T08:41:58.580Z,87.75
2019-02-25T08:43:12.653Z,68.35
2019-02-25T08:44:32.639Z,53.92
2019-02-25T08:45:41.382Z,59.25
2019-02-25T08:46:52.293Z,54.67
2019-02-25T08:48:02.778Z,49.85
2019-02-25T08:49:13.024Z,57.30
2019-02-25T08:50:18.840Z,42.80
2019-02-25T08:51:24.897Z,46.58
2019-02-25T08:52:30.512Z,47.83
2019-02-25T08:53:37.027Z,46.63
2019-02-25T08:54:44.273Z,42.98
2019-02-25T08:55:50.761Z,47.95
2019-02-25T08:56:56.574Z,53.85
2019-02-25T08:58:02.613Z,46.05
2019-02-25T08:59:08.673Z,46.55
2019-02-25T09:00:15.814Z,47.25
2019-02-25T09:01:22.248Z,46.63
2019-02-25T09:02:29.172Z,45.70
2019-02-25T09:03:36.013Z,47.33
2019-02-25T09:04:42.073Z,45.73
2019-02-25T09:05:48.213Z,49.00
2019-02-25T09:06:54.895Z,44.67
2019-02-25T09:08:01.363Z,45.83
2019-02-25T09:09:07.813Z,43.10
2019-02-25T09:10:15.720Z,47.48
2019-02-25T09:11:22.194Z,45.73
2019-02-25T09:12:30.033Z,46.08
2019-02-25T09:13:36.476Z,45.20
2019-02-25T09:14:42.653Z,45.65
2019-02-25T09:15:48.894Z,44.33
2019-02-25T09:16:55.373Z,45.35
2019-02-25T09:17:59.808Z,44.35
2019-02-25T09:19:05.640Z,43.05
2019-02-25T09:20:11.413Z,44.73
2019-02-25T09:21:17.182Z,45.38
2019-02-25T09:22:22.880Z,46.13
2019-02-25T09:23:28.574Z,46.60
2019-02-25T09:24:34.954Z,46.45
2019-02-25T09:25:42.254Z,44.33
2019-02-25T09:26:48.213Z,52.80
2019-02-25T09:27:54.516Z,46.75
2019-02-25T09:29:00.530Z,52.62
2019-02-25T09:30:16.129Z,47.33
2019-02-25T09:31:23.000Z,46.42
2019-02-25T09:32:30.530Z,45.90
2019-02-25T09:33:36.676Z,49.35
2019-02-25T09:34:43.232Z,49.67
2019-02-25T09:35:49.552Z,47.05
2019-02-25T09:36:55.534Z,42.30
2019-02-25T09:38:01.819Z,42.30
2019-02-25T09:39:12.073Z,41.37
2019-02-25T09:40:20.253Z,41.15
2019-02-25T09:41:29.997Z,41.23
2019-02-25T09:42:34.412Z,43.40
2019-02-25T09:43:41.863Z,45.50
2019-02-25T09:44:48.375Z,45.30
2019-02-25T09:45:55.022Z,44.75
2019-02-25T09:47:00.894Z,45.23
2019-02-25T09:48:06.933Z,47.78
2019-02-25T09:49:12.888Z,46.18
2019-02-25T09:50:21.149Z,41.98
2019-02-25T09:51:26.922Z,43.87
2019-02-25T09:52:32.893Z,42.55
2019-02-25T09:53:38.913Z,43.98
2019-02-25T09:54:44.853Z,42.65
2019-02-25T09:55:50.793Z,44.80
2019-02-25T09:56:56.681Z,43.02
2019-02-25T09:58:02.942Z,46.55
2019-02-25T09:59:09.120Z,41.73
2019-02-25T10:00:18.935Z,43.95
2019-02-25T10:01:26.581Z,45.80
2019-02-25T10:02:32.733Z,42.50
2019-02-25T10:03:38.773Z,44.27
2019-02-25T10:04:45.520Z,43.40
2019-02-25T10:05:51.476Z,41.70
2019-02-25T10:07:02.274Z,41.77
2019-02-25T10:08:06.014Z,40.23
2019-02-25T10:09:12.698Z,39.27
2019-02-25T10:10:20.301Z,42.85
2019-02-25T10:11:26.973Z,40.50
2019-02-25T10:12:32.773Z,43.50
2019-02-25T10:13:40.033Z,42.62
2019-02-25T10:14:46.514Z,44.70
2019-02-25T10:15:52.454Z,42.88
2019-02-25T10:16:58.376Z,46.35
2019-02-25T10:18:04.273Z,46.13
2019-02-25T10:19:10.233Z,47.03
2019-02-25T10:20:16.070Z,47.85
2019-02-25T10:21:21.793Z,45.45
2019-02-25T10:22:27.700Z,43.98
2019-02-25T10:23:34.213Z,44.35
2019-02-25T10:24:40.034Z,51.48
2019-02-25T10:25:46.453Z,49.60
2019-02-25T10:26:52.921Z,42.90
2019-02-25T10:27:58.574Z,43.08
2019-02-25T10:29:04.833Z,46.37
2019-02-25T10:30:17.675Z,44.37
2019-02-25T10:31:23.460Z,46.42
2019-02-25T10:32:30.238Z,48.42
2019-02-25T10:33:36.414Z,47.00
2019-02-25T10:34:42.494Z,47.95
2019-02-25T10:35:48.654Z,45.67
2019-02-25T10:36:54.513Z,43.58
2019-02-25T10:38:03.034Z,46.55
2019-02-25T10:39:13.049Z,44.27
2019-02-25T10:40:23.982Z,45.47
2019-02-25T10:41:27.919Z,41.88
2019-02-25T10:42:35.622Z,44.20
2019-02-25T10:43:42.121Z,43.77
2019-02-25T10:44:50.201Z,42.85
2019-02-25T10:45:57.133Z,43.60
2019-02-25T10:47:04.441Z,44.80
2019-02-25T10:48:10.393Z,41.97
2019-02-25T10:49:16.135Z,45.13
2019-02-25T10:50:21.999Z,44.07
2019-02-25T10:51:27.745Z,45.37
2019-02-25T10:52:33.453Z,43.07
2019-02-25T10:53:39.779Z,44.93
2019-02-25T10:54:45.479Z,45.33
2019-02-25T10:56:05.042Z,45.07
2019-02-25T10:57:10.974Z,43.63
2019-02-25T10:58:17.474Z,44.43
2019-02-25T10:59:23.601Z,44.30
2019-02-25T11:00:29.414Z,41.73
2019-02-25T11:01:37.541Z,42.40
2019-02-25T11:02:44.452Z,42.80
2019-02-25T11:03:52.640Z,43.30
2019-02-25T11:05:00.054Z,45.70
2019-02-25T11:06:06.193Z,45.37
2019-02-25T11:07:13.053Z,43.13
2019-02-25T11:08:20.580Z,43.83
2019-02-25T11:09:37.874Z,44.90
2019-02-25T11:10:50.781Z,43.47
2019-02-25T11:12:00.058Z,43.20
2019-02-25T11:13:06.155Z,45.93
2019-02-25T11:14:12.441Z,46.90
2019-02-25T11:15:18.479Z,52.47
2019-02-25T11:16:25.135Z,53.70
2019-02-25T11:17:31.974Z,46.60
2019-02-25T11:18:37.834Z,45.87
2019-02-25T11:19:43.653Z,42.20
2019-02-25T11:20:50.440Z,40.63
2019-02-25T11:21:56.181Z,41.70
2019-02-25T11:23:02.134Z,40.43
2019-02-25T11:24:07.914Z,41.87
2019-02-25T11:25:15.577Z,41.70
2019-02-25T11:26:23.774Z,40.67
2019-02-25T11:27:31.331Z,41.63
2019-02-25T11:28:39.215Z,40.67
2019-02-25T11:29:46.229Z,40.50
2019-02-25T11:30:53.773Z,40.78
2019-02-25T11:32:00.560Z,40.80
2019-02-25T11:33:06.760Z,45.07
2019-02-25T11:34:13.254Z,44.93
2019-02-25T11:35:20.021Z,42.67
2019-02-25T11:36:26.821Z,41.63
2019-02-25T11:37:32.715Z,39.23
2019-02-25T11:38:38.483Z,39.83
2019-02-25T11:39:44.761Z,40.67
2019-02-25T11:40:51.021Z,37.43
2019-02-25T11:41:57.941Z,39.57
2019-02-25T11:43:03.794Z,38.17
2019-02-25T11:44:09.527Z,39.07
2019-02-25T11:45:22.439Z,40.37
2019-02-25T11:46:28.274Z,39.83
2019-02-25T11:47:35.054Z,38.27
2019-02-25T11:48:41.633Z,39.57
2019-02-25T11:49:47.894Z,40.70
2019-02-25T11:50:53.571Z,40.37
2019-02-25T11:51:59.334Z,39.63
2019-02-25T11:53:05.674Z,39.23
2019-02-25T11:54:11.662Z,39.47
2019-02-25T11:55:17.994Z,38.43
2019-02-25T11:56:24.325Z,39.47
2019-02-25T11:57:30.322Z,39.57
2019-02-25T11:58:36.038Z,37.90
2019-02-25T11:59:42.083Z,38.60
2019-02-25T12:00:47.844Z,36.23
2019-02-25T12:01:53.882Z,39.33
2019-02-25T12:02:59.616Z,36.97
2019-02-25T12:04:05.774Z,39.43
2019-02-25T12:05:12.475Z,36.93
2019-02-25T12:06:19.413Z,38.67
2019-02-25T12:07:25.962Z,36.00
2019-02-25T12:08:32.336Z,36.77
2019-02-25T12:09:38.914Z,37.30
2019-02-25T12:10:45.155Z,36.70
2019-02-25T12:11:50.861Z,36.07
2019-02-25T12:12:56.715Z,36.37
2019-02-25T12:14:03.061Z,35.63
2019-02-25T12:15:27.562Z,37.27
2019-02-25T12:16:35.137Z,38.70
2019-02-25T12:17:40.874Z,38.53
2019-02-25T12:18:47.576Z,36.17
2019-02-25T12:19:54.115Z,38.97
2019-02-25T12:20:59.981Z,36.80
2019-02-25T12:22:05.795Z,36.57
2019-02-25T12:23:11.814Z,34.93
2019-02-25T12:24:17.529Z,41.10
2019-02-25T12:25:25.191Z,35.57
2019-02-25T12:26:30.901Z,35.90
2019-02-25T12:27:37.142Z,36.63
2019-02-25T12:28:43.742Z,37.83
2019-02-25T12:29:51.057Z,39.27
2019-02-25T12:30:56.936Z,38.43
2019-02-25T12:32:03.195Z,39.77
2019-02-25T12:33:10.834Z,38.33
2019-02-25T12:34:18.303Z,38.90
2019-02-25T12:35:23.980Z,39.10
2019-02-25T12:36:30.354Z,36.70
2019-02-25T12:37:37.261Z,37.17
2019-02-25T12:38:43.376Z,36.33
2019-02-25T12:39:49.401Z,35.70
2019-02-25T12:40:55.781Z,38.00
2019-02-25T12:42:01.705Z,37.17
2019-02-25T12:43:08.504Z,35.43
2019-02-25T12:44:14.334Z,34.20
2019-02-25T12:45:22.255Z,35.00
2019-02-25T12:46:28.673Z,35.93
2019-02-25T12:47:34.634Z,35.30
2019-02-25T12:48:41.186Z,40.13
2019-02-25T12:49:47.222Z,40.73
2019-02-25T12:50:53.055Z,36.87
2019-02-25T12:51:58.921Z,35.63
2019-02-25T12:53:04.962Z,41.33
2019-02-25T12:54:12.035Z,38.33
2019-02-25T12:55:19.543Z,35.00
2019-02-25T12:56:25.373Z,37.03
2019-02-25T12:57:31.854Z,33.40
2019-02-25T12:58:37.874Z,45.73
2019-02-25T12:59:43.711Z,51.50
2019-02-25T13:00:49.560Z,39.30
2019-02-25T13:01:55.961Z,32.40
2019-02-25T13:03:01.741Z,31.60
2019-02-25T13:04:08.312Z,32.97
2019-02-25T13:05:24.554Z,31.97
2019-02-25T13:06:30.334Z,32.17
2019-02-25T13:07:36.082Z,32.97
2019-02-25T13:08:41.802Z,33.57
2019-02-25T13:09:47.662Z,32.80
2019-02-25T13:10:53.410Z,34.10
2019-02-25T13:11:59.650Z,35.23
2019-02-25T13:13:05.621Z,34.77
2019-02-25T13:14:12.641Z,33.13
2019-02-25T13:15:24.258Z,33.87
2019-02-25T13:16:30.935Z,30.20
2019-02-25T13:17:37.181Z,33.53
2019-02-25T13:18:44.615Z,36.63
2019-02-25T13:19:51.502Z,29.20
2019-02-25T13:20:57.680Z,30.63
2019-02-25T13:22:03.475Z,29.93
2019-02-25T13:23:09.238Z,30.27
2019-02-25T13:24:15.494Z,31.53
2019-02-25T13:25:34.222Z,41.43
2019-02-25T13:26:40.345Z,36.87
2019-02-25T13:27:46.454Z,29.40
2019-02-25T13:28:52.375Z,31.93
2019-02-25T13:29:58.862Z,40.10
2019-02-25T13:31:06.405Z,36.43
2019-02-25T13:32:13.035Z,31.27
2019-02-25T13:33:20.376Z,30.53
2019-02-25T13:34:27.623Z,30.73
2019-02-25T13:35:33.375Z,37.30
2019-02-25T13:36:39.322Z,47.13
2019-02-25T13:37:46.916Z,30.33
2019-02-25T13:38:52.854Z,29.63
2019-02-25T13:39:59.214Z,33.20
2019-02-25T13:41:05.122Z,29.57
2019-02-25T13:42:11.234Z,39.60
2019-02-25T13:43:17.784Z,38.00
2019-02-25T13:44:25.065Z,37.10
2019-02-25T13:45:32.662Z,35.60
2019-02-25T13:46:38.994Z,39.73
2019-02-25T13:47:45.445Z,35.57
2019-02-25T13:48:51.601Z,41.57
2019-02-25T13:49:58.276Z,38.70
2019-02-25T13:51:04.830Z,31.40
2019-02-25T13:52:12.191Z,39.93
2019-02-25T13:53:18.322Z,33.17
2019-02-25T13:54:24.195Z,40.67
2019-02-25T13:55:30.142Z,34.57
2019-02-25T13:56:36.089Z,42.00
2019-02-25T13:57:42.816Z,35.00
2019-02-25T13:58:48.897Z,36.07
2019-02-25T13:59:54.642Z,35.80
2019-02-25T14:01:00.575Z,34.63
2019-02-25T14:02:09.302Z,31.73
2019-02-25T14:03:15.302Z,27.43
2019-02-25T14:04:22.835Z,29.43
2019-02-25T14:05:29.094Z,29.23
2019-02-25T14:06:35.223Z,28.93
2019-02-25T14:07:43.195Z,28.13
2019-02-25T14:08:49.785Z,28.70
2019-02-25T14:09:56.375Z,32.10
2019-02-25T14:11:02.334Z,25.70
2019-02-25T14:12:08.338Z,26.87
2019-02-25T14:13:15.982Z,26.37
2019-02-25T14:14:22.235Z,25.00
2019-02-25T14:15:28.222Z,24.47
2019-02-25T14:16:34.743Z,28.27
2019-02-25T14:17:41.335Z,27.07
2019-02-25T14:18:47.006Z,29.90
2019-02-25T14:19:53.797Z,33.57
2019-02-25T14:21:01.724Z,27.97
2019-02-25T14:22:07.483Z,31.07
2019-02-25T14:23:16.069Z,24.67
2019-02-25T14:24:21.399Z,24.90
2019-02-25T14:25:33.263Z,22.97
2019-02-25T14:26:39.282Z,22.33
2019-02-25T14:27:45.466Z,25.47
2019-02-25T14:28:51.737Z,27.00
2019-02-25T14:29:57.886Z,30.03
2019-02-25T14:31:03.717Z,24.97
2019-02-25T14:32:10.926Z,22.77
2019-02-25T14:33:17.337Z,23.00
2019-02-25T14:34:24.848Z,20.33
2019-02-25T14:35:32.965Z,22.20